createdAt,value
2019-04-30T00:00:09.888Z,31
2019-04-30T00:05:15.052Z,33
2019-04-30T00:10:15.453Z,36
2019-04-30T00:15:19.386Z,36
2019-04-30T00:20:19.813Z,36
2019-04-30T00:25:24.784Z,31
2019-04-30T00:30:25.196Z,24
2019-04-30T00:35:27.289Z,18
2019-04-30T00:40:30.182Z,14
2019-04-30T00:45:32.063Z,14
2019-04-30T00:50:37.165Z,13
2019-04-30T01:00:39.454Z,12
2019-04-30T01:05:44.403Z,13
2019-04-30T01:10:45.971Z,13
2019-04-30T01:15:48.875Z,13
2019-04-30T01:20:49.208Z,14
2019-04-30T01:25:52.045Z,15
2019-04-30T01:30:58.608Z,17
2019-04-30T01:35:56.601Z,18
2019-04-30T01:40:59.568Z,19
2019-04-30T01:46:08.324Z,20
2019-04-30T01:51:03.949Z,21
2019-04-30T01:56:06.680Z,24
2019-04-30T02:01:09.102Z,22
2019-04-30T02:06:11.518Z,25
2019-04-30T02:11:13.782Z,22
2019-04-30T02:16:16.225Z,22
2019-04-30T02:21:19.418Z,22
2019-04-30T02:26:21.585Z,20
2019-04-30T02:31:23.787Z,16
2019-04-30T02:36:26.319Z,15
2019-04-30T02:41:29.252Z,13
2019-04-30T02:46:32.232Z,14
2019-04-30T02:51:33.509Z,11
2019-04-30T02:56:35.981Z,12
2019-04-30T03:01:40.178Z,11
2019-04-30T03:06:40.885Z,10
2019-04-30T03:11:43.660Z,10
2019-04-30T03:16:45.813Z,10
2019-04-30T03:21:50.181Z,10
2019-04-30T03:26:50.816Z,9
2019-04-30T03:31:53.327Z,8
2019-04-30T03:36:55.782Z,9
2019-04-30T03:41:59.631Z,9
2019-04-30T03:47:00.587Z,10
2019-04-30T03:52:03.085Z,10
2019-04-30T03:57:05.589Z,9
2019-04-30T04:02:09.395Z,10
2019-04-30T04:07:10.407Z,11
2019-04-30T04:12:13.089Z,12
2019-04-30T04:17:15.386Z,12
2019-04-30T04:22:20.286Z,12
2019-04-30T04:27:20.399Z,13
2019-04-30T04:32:24.173Z,13
2019-04-30T04:37:25.569Z,15
2019-04-30T04:42:29.909Z,16
2019-04-30T04:47:30.967Z,17
2019-04-30T04:52:32.861Z,17
2019-04-30T04:57:35.164Z,16
2019-04-30T05:02:39.610Z,16
2019-04-30T05:07:40.179Z,18
2019-04-30T05:12:42.436Z,16
2019-04-30T05:17:45.175Z,15
2019-04-30T05:22:48.842Z,14
2019-04-30T05:27:49.863Z,12
2019-04-30T05:32:52.265Z,14
2019-04-30T05:37:54.730Z,12
2019-04-30T05:42:57.477Z,12
2019-04-30T05:47:59.748Z,12
2019-04-30T05:53:02.285Z,13
2019-04-30T05:58:04.566Z,13
2019-04-30T06:03:09.235Z,12
2019-04-30T06:08:09.513Z,11
2019-04-30T06:13:12.269Z,13
2019-04-30T06:18:14.403Z,12
2019-04-30T06:23:16.844Z,15
2019-04-30T06:28:19.629Z,14
2019-04-30T06:33:21.816Z,14
2019-04-30T06:38:24.214Z,12
2019-04-30T06:43:28.577Z,14
2019-04-30T06:48:29.560Z,12
2019-04-30T06:53:31.597Z,13
2019-04-30T06:58:34.028Z,11
2019-04-30T07:03:36.593Z,10
2019-04-30T07:08:42.575Z,9
2019-04-30T07:13:41.768Z,9
2019-04-30T07:18:44.057Z,9
2019-04-30T07:23:46.346Z,9
2019-04-30T07:28:54.210Z,8
2019-04-30T07:38:56.564Z,8
2019-04-30T07:43:56.411Z,8
2019-04-30T07:48:59.912Z,7
2019-04-30T07:54:01.072Z,7
2019-04-30T07:59:03.679Z,6
2019-04-30T08:04:06.030Z,7
2019-04-30T08:09:10.266Z,7
2019-04-30T08:14:11.048Z,6
2019-04-30T08:19:13.393Z,7
2019-04-30T08:24:15.845Z,7
2019-04-30T08:29:19.475Z,6
2019-04-30T08:39:23.267Z,7
2019-04-30T08:44:25.795Z,7
2019-04-30T08:49:30.364Z,8
2019-04-30T08:54:30.617Z,7
2019-04-30T08:59:33.066Z,8
2019-04-30T09:04:35.690Z,8
2019-04-30T09:09:38.948Z,9
2019-04-30T09:14:40.739Z,9
2019-04-30T09:19:42.961Z,9
2019-04-30T09:24:45.491Z,8
2019-04-30T09:29:49.151Z,7
2019-04-30T09:34:50.374Z,7
2019-04-30T09:39:52.942Z,6
2019-04-30T09:44:57.212Z,7
2019-04-30T09:49:59.580Z,7
2019-04-30T09:55:00.624Z,7
2019-04-30T10:00:02.637Z,6
2019-04-30T10:05:05.497Z,6
2019-04-30T10:10:09.451Z,6
2019-04-30T10:15:10.000Z,6
2019-04-30T10:20:12.556Z,6
2019-04-30T10:25:14.923Z,6
2019-04-30T10:30:19.099Z,6
2019-04-30T10:35:20.350Z,6
2019-04-30T10:40:22.552Z,7
2019-04-30T10:45:25.071Z,6
2019-04-30T10:50:27.191Z,6
2019-04-30T10:55:31.104Z,7
2019-04-30T11:00:32.152Z,7
2019-04-30T11:05:34.627Z,6
2019-04-30T11:10:37.047Z,7
2019-04-30T11:15:39.847Z,6
2019-04-30T11:20:42.465Z,6
2019-04-30T11:25:45.529Z,6
2019-04-30T11:30:47.186Z,6
2019-04-30T11:36:01.654Z,6
2019-04-30T11:40:51.849Z,6
2019-04-30T11:45:54.534Z,7
2019-04-30T11:50:56.734Z,7
2019-04-30T11:55:59.597Z,6
2019-04-30T12:01:01.888Z,7
2019-04-30T12:06:04.535Z,7
2019-04-30T12:11:06.629Z,6
2019-04-30T12:16:09.135Z,7
2019-04-30T12:21:11.513Z,6
2019-04-30T12:26:14.116Z,6
2019-04-30T12:31:16.415Z,7
2019-04-30T12:36:18.974Z,8
2019-04-30T12:41:21.355Z,7
2019-04-30T12:46:23.799Z,7
2019-04-30T12:51:26.485Z,7
2019-04-30T12:56:29.767Z,8
2019-04-30T13:01:32.149Z,8
2019-04-30T13:06:34.230Z,8
2019-04-30T13:11:36.374Z,6
2019-04-30T13:16:39.278Z,8
2019-04-30T13:21:41.006Z,8
2019-04-30T13:26:43.449Z,9
2019-04-30T13:31:46.090Z,8
2019-04-30T13:36:49.336Z,8
2019-04-30T13:41:51.173Z,8
2019-04-30T13:46:53.358Z,8
2019-04-30T13:51:56.102Z,8
2019-04-30T13:56:59.110Z,9
2019-04-30T14:02:00.726Z,7
2019-04-30T14:07:03.250Z,8
2019-04-30T14:12:05.699Z,7
2019-04-30T14:17:09.291Z,8
2019-04-30T14:22:10.488Z,9
2019-04-30T14:27:12.998Z,9
2019-04-30T14:32:15.447Z,7
2019-04-30T14:37:17.917Z,9
2019-04-30T14:42:21.169Z,7
2019-04-30T14:47:23.927Z,7
2019-04-30T14:52:25.265Z,8
2019-04-30T14:57:27.713Z,8
2019-04-30T15:02:30.177Z,8
2019-04-30T15:07:32.644Z,7
2019-04-30T15:12:35.083Z,8
2019-04-30T15:17:39.158Z,8
2019-04-30T15:22:40.166Z,8
2019-04-30T15:27:44.827Z,8
2019-04-30T15:32:44.934Z,7
2019-04-30T15:37:48.620Z,7
2019-04-30T15:42:49.963Z,7
2019-04-30T15:47:52.303Z,7
2019-04-30T15:52:54.770Z,7
2019-04-30T15:57:58.871Z,7
2019-04-30T16:03:00.189Z,6
2019-04-30T16:13:04.572Z,6
2019-04-30T16:18:07.130Z,6
2019-04-30T16:23:09.478Z,6
2019-04-30T16:28:12.033Z,6
2019-04-30T16:33:14.416Z,6
2019-04-30T16:38:18.332Z,6
2019-04-30T16:43:20.311Z,5
2019-04-30T16:48:22.409Z,6
2019-04-30T16:53:24.411Z,5
2019-04-30T16:58:26.703Z,5
2019-04-30T17:03:29.168Z,4
2019-04-30T17:08:31.604Z,4
2019-04-30T17:13:34.264Z,5
2019-04-30T17:18:36.688Z,5
2019-04-30T17:23:39.014Z,12
2019-04-30T17:28:41.445Z,5
2019-04-30T17:33:44.002Z,6
2019-04-30T17:38:46.430Z,10
2019-04-30T17:43:49.541Z,12
2019-04-30T17:48:51.726Z,18
2019-04-30T17:53:53.770Z,15
2019-04-30T17:58:56.196Z,15
2019-04-30T18:03:58.862Z,40
2019-04-30T18:09:01.112Z,8
2019-04-30T18:14:03.585Z,5
2019-04-30T18:19:06.500Z,5
2019-04-30T18:24:08.683Z,5
2019-04-30T18:29:11.133Z,6
2019-04-30T18:34:13.459Z,5
2019-04-30T18:39:15.903Z,14
2019-04-30T18:44:19.510Z,55
2019-04-30T18:49:20.769Z,19
2019-04-30T18:54:23.233Z,82
2019-04-30T18:59:25.713Z,42
2019-04-30T19:04:28.785Z,124
2019-04-30T19:09:30.623Z,76
2019-04-30T19:14:33.118Z,148
2019-04-30T19:19:35.590Z,148
2019-04-30T19:24:38.002Z,106
2019-04-30T19:29:40.429Z,86
2019-04-30T19:34:42.896Z,208
2019-04-30T19:39:45.335Z,254
2019-04-30T19:44:56.700Z,301
2019-04-30T19:49:50.724Z,260
2019-04-30T19:54:52.716Z,251
2019-04-30T19:59:55.170Z,316
2019-04-30T20:04:59.010Z,305
2019-04-30T20:10:03.846Z,279
2019-04-30T20:15:02.574Z,254
2019-04-30T20:20:05.361Z,206
2019-04-30T20:25:09.118Z,221
2019-04-30T20:30:09.925Z,224
2019-04-30T20:35:12.425Z,222
2019-04-30T20:40:15.010Z,239
2019-04-30T20:45:18.825Z,249
2019-04-30T20:50:20.094Z,243
2019-04-30T20:55:22.333Z,258
2019-04-30T21:00:24.649Z,251
2019-04-30T21:05:27.216Z,259
2019-04-30T21:10:29.819Z,278
2019-04-30T21:15:32.024Z,291
2019-04-30T21:20:34.851Z,321
2019-04-30T21:25:38.680Z,332
2019-04-30T21:30:39.481Z,316
2019-04-30T21:35:41.908Z,317
2019-04-30T21:40:45.029Z,364
2019-04-30T21:45:46.784Z,273
2019-04-30T21:50:49.846Z,322
2019-04-30T21:55:51.835Z,295
2019-04-30T22:00:54.234Z,284
2019-04-30T22:05:56.692Z,306
2019-04-30T22:11:00.202Z,324
2019-04-30T22:16:01.564Z,310
2019-04-30T22:21:04.045Z,283
2019-04-30T22:26:06.906Z,262
2019-04-30T22:31:08.972Z,289
2019-04-30T22:36:11.439Z,322
2019-04-30T22:41:13.916Z,285
2019-04-30T22:46:16.421Z,266
2019-04-30T22:51:19.179Z,256
2019-04-30T22:56:21.432Z,261
2019-04-30T23:01:23.787Z,270
2019-04-30T23:06:26.278Z,273
2019-04-30T23:11:28.746Z,273
2019-04-30T23:16:31.213Z,267
2019-04-30T23:21:33.962Z,263
2019-04-30T23:26:36.074Z,288
2019-04-30T23:31:38.584Z,273
2019-04-30T23:36:41.146Z,338
2019-04-30T23:41:43.465Z,350
2019-04-30T23:46:45.959Z,326
2019-04-30T23:51:50.489Z,349
2019-04-30T23:56:50.971Z,334
